createdAt,value
2019-03-06T00:02:51.569Z,26.1
2019-03-06T00:08:45.587Z,26.2
2019-03-06T00:14:39.698Z,26.2
2019-03-06T00:17:37.117Z,26.3
2019-03-06T00:20:33.806Z,26.3
2019-03-06T00:23:30.471Z,26.4
2019-03-06T00:26:27.620Z,26.4
2019-03-06T00:29:24.598Z,26.6
2019-03-06T00:38:15.768Z,26.8
2019-03-06T00:41:12.607Z,26.8
2019-03-06T00:44:09.815Z,27
2019-03-06T00:47:06.626Z,27.1
2019-03-06T00:50:03.664Z,27.1
2019-03-06T00:53:00.690Z,27.2
2019-03-06T00:55:57.902Z,27.3
2019-03-06T00:58:54.659Z,27.4
2019-03-06T01:01:51.712Z,27.4
2019-03-06T01:04:48.639Z,27.6
2019-03-06T01:07:45.839Z,27.6
2019-03-06T01:10:42.711Z,27.7
2019-03-06T01:13:39.800Z,27.8
2019-03-06T01:16:36.723Z,27.8
2019-03-06T01:19:33.837Z,27.8
2019-03-06T01:22:30.536Z,27.9
2019-03-06T01:25:27.680Z,27.9
2019-03-06T01:28:24.637Z,27.9
2019-03-06T01:31:21.704Z,28
2019-03-06T01:34:18.605Z,28.1
2019-03-06T01:40:12.754Z,28.2
2019-03-06T01:43:09.583Z,28.2
2019-03-06T01:46:06.918Z,28.3
2019-03-06T01:49:03.573Z,28.4
2019-03-06T01:52:00.745Z,28.5
2019-03-06T01:54:57.592Z,28.5
2019-03-06T01:57:54.734Z,28.5
2019-03-06T02:00:51.638Z,28.6
2019-03-06T02:03:48.846Z,28.6
2019-03-06T02:06:45.639Z,28.7
2019-03-06T02:09:42.767Z,28.8
2019-03-06T02:12:40.243Z,28.8
2019-03-06T02:15:36.756Z,28.9
2019-03-06T02:18:33.580Z,29
2019-03-06T02:21:30.801Z,29.1
2019-03-06T02:24:27.618Z,29.1
2019-03-06T02:27:24.794Z,29.1
2019-03-06T02:33:18.811Z,29.2
2019-03-06T02:36:15.675Z,29.3
2019-03-06T02:42:09.823Z,29.4
2019-03-06T02:45:06.952Z,29.5
2019-03-06T02:51:00.987Z,29.6
2019-03-06T02:53:57.643Z,29.7
2019-03-06T02:56:54.797Z,29.7
2019-03-06T02:59:51.697Z,29.8
2019-03-06T03:02:48.909Z,30
2019-03-06T03:05:45.688Z,29.9
2019-03-06T03:08:42.823Z,30
2019-03-06T03:11:39.696Z,30.1
2019-03-06T03:17:33.866Z,30.3
2019-03-06T03:23:27.893Z,30.4
2019-03-06T03:26:24.676Z,30.5
2019-03-06T03:29:21.873Z,30.6
2019-03-06T03:32:18.720Z,30.7
2019-03-06T03:35:16.638Z,30.8
2019-03-06T03:38:13.098Z,30.8
2019-03-06T03:41:10.378Z,30.9
2019-03-06T03:44:06.753Z,31
2019-03-06T03:50:00.882Z,31.2
2019-03-06T03:52:57.803Z,31.2
2019-03-06T03:55:55.048Z,31.3
2019-03-06T04:04:45.966Z,31.5
2019-03-06T04:07:42.800Z,31.6
2019-03-06T04:10:39.996Z,31.6
2019-03-06T04:13:36.792Z,31.6
2019-03-06T04:16:33.980Z,31.6
2019-03-06T04:22:27.914Z,31.8
2019-03-06T04:25:24.822Z,31.8
2019-03-06T04:28:21.986Z,31.9
2019-03-06T04:31:18.826Z,32
2019-03-06T04:34:16.000Z,32.1
2019-03-06T04:37:12.893Z,32.2
2019-03-06T04:40:10.056Z,32.2
2019-03-06T04:43:06.856Z,32.3
2019-03-06T04:46:03.953Z,32.3
2019-03-06T04:49:00.872Z,32.4
2019-03-06T04:51:57.993Z,32.4
2019-03-06T04:54:54.839Z,32.4
2019-03-06T04:57:52.153Z,32.5
2019-03-06T05:06:43.051Z,32.6
2019-03-06T05:12:37.091Z,32.7
2019-03-06T05:18:31.095Z,32.8
2019-03-06T05:21:27.870Z,32.8
2019-03-06T05:24:25.149Z,32.9
2019-03-06T05:27:21.941Z,33
2019-03-06T05:30:19.114Z,33.1
2019-03-06T05:45:04.296Z,33.4
2019-03-06T05:50:58.140Z,33.6
2019-03-06T06:05:43.712Z,33.8
2019-03-06T06:14:34.148Z,34
2019-03-06T06:17:31.014Z,34
2019-03-06T06:20:28.131Z,34
2019-03-06T06:26:22.141Z,34
2019-03-06T06:35:13.161Z,34.1
2019-03-06T06:38:10.025Z,34.1
2019-03-06T06:44:04.279Z,34.2
2019-03-06T06:52:55.235Z,34.2
2019-03-06T07:04:43.270Z,34.3
2019-03-06T07:34:13.487Z,34.4
2019-03-06T07:37:10.248Z,34.4
2019-03-06T07:40:07.334Z,34.4
2019-03-06T07:51:55.404Z,34.4
2019-03-06T08:09:37.371Z,34.4
2019-03-06T08:12:34.284Z,34.4
2019-03-06T08:18:28.385Z,34.3
2019-03-06T08:21:25.191Z,34.4
2019-03-06T08:24:22.387Z,34.4
2019-03-06T08:27:19.187Z,34.4
2019-03-06T08:30:16.418Z,34.4
2019-03-06T08:36:10.536Z,34.3
2019-03-06T08:42:04.536Z,34.3
2019-03-06T08:45:01.227Z,34.3
2019-03-06T08:50:55.465Z,34.2
2019-03-06T09:02:43.465Z,34.2
2019-03-06T09:08:37.460Z,34.1
2019-03-06T09:49:55.781Z,33.6
2019-03-06T09:58:47.011Z,33.4
2019-03-06T10:04:40.578Z,33.2
2019-03-06T10:07:37.471Z,33.2
2019-03-06T10:10:34.619Z,33.1
2019-03-06T10:16:28.553Z,32.9
2019-03-06T10:31:13.659Z,32.3
2019-03-06T10:34:10.451Z,32.2
2019-03-06T10:57:46.807Z,31.4
2019-03-06T11:12:31.729Z,31
2019-03-06T11:30:13.768Z,30.7
2019-03-06T11:33:10.547Z,30.6
2019-03-06T11:42:01.770Z,30.5
2019-03-06T11:44:59.253Z,30.4
2019-03-06T11:47:55.741Z,30.4
2019-03-06T11:53:49.776Z,30.4
2019-03-06T11:56:46.597Z,30.3
2019-03-06T11:59:43.996Z,30.2
2019-03-06T12:02:40.552Z,30.2
2019-03-06T12:05:37.722Z,30.1
2019-03-06T12:11:31.807Z,30
2019-03-06T12:20:22.824Z,29.9
2019-03-06T12:26:16.852Z,29.9
2019-03-06T12:29:13.673Z,29.8
2019-03-06T12:43:58.835Z,29.6
2019-03-06T13:01:41.031Z,29.3
2019-03-06T13:07:34.935Z,29.2
2019-03-06T13:16:25.931Z,29.2
2019-03-06T13:19:22.866Z,29.2
2019-03-06T13:22:19.853Z,29.1
2019-03-06T13:25:16.668Z,29.1
2019-03-06T13:28:13.890Z,29
2019-03-06T13:31:10.662Z,29
2019-03-06T13:34:07.876Z,29
2019-03-06T13:42:58.970Z,28.8
2019-03-06T13:48:52.904Z,28.8
2019-03-06T13:51:49.717Z,28.8
2019-03-06T13:54:46.870Z,28.8
2019-03-06T14:06:35.144Z,28.6
2019-03-06T14:09:31.795Z,28.5
2019-03-06T14:15:25.957Z,28.5
2019-03-06T14:21:19.968Z,28.4
2019-03-06T14:24:16.743Z,28.4
2019-03-06T14:33:07.982Z,28.1
2019-03-06T14:44:56.126Z,28
2019-03-06T14:47:52.798Z,27.9
2019-03-06T14:56:44.027Z,27.9
2019-03-06T15:05:35.016Z,27.8
2019-03-06T15:11:33.060Z,27.7
2019-03-06T15:17:23.048Z,27.6
2019-03-06T15:20:19.901Z,27.6
2019-03-06T15:23:17.042Z,27.6
2019-03-06T15:26:13.840Z,27.6
2019-03-06T15:32:08.033Z,27.5
2019-03-06T15:40:59.152Z,27.5
2019-03-06T15:46:53.106Z,27.4
2019-03-06T15:55:44.143Z,27.3
2019-03-06T15:58:40.914Z,27.2
2019-03-06T16:10:29.165Z,27.2
2019-03-06T16:13:25.994Z,27.2
2019-03-06T16:16:23.307Z,27.2
2019-03-06T16:19:20.082Z,27.2
2019-03-06T16:25:14.122Z,27.2
2019-03-06T16:34:05.151Z,27.2
2019-03-06T16:39:59.240Z,27.2
2019-03-06T16:48:50.142Z,27
2019-03-06T16:54:44.206Z,27
2019-03-06T16:57:40.974Z,27
2019-03-06T17:00:38.144Z,27
2019-03-06T17:03:35.007Z,26.9
2019-03-06T17:18:20.384Z,26.8
2019-03-06T17:21:17.104Z,26.8
2019-03-06T17:24:14.232Z,26.8
2019-03-06T17:27:11.290Z,26.8
2019-03-06T17:36:02.238Z,26.8
2019-03-06T17:38:59.103Z,26.8
2019-03-06T17:41:56.277Z,26.8
2019-03-06T17:44:53.192Z,26.8
2019-03-06T17:47:50.290Z,26.8
2019-03-06T17:50:47.157Z,26.8
2019-03-06T17:53:44.317Z,26.8
2019-03-06T17:59:38.286Z,26.9
2019-03-06T18:02:35.164Z,26.9
2019-03-06T18:05:32.305Z,26.8
2019-03-06T18:08:29.138Z,26.8
2019-03-06T18:11:26.395Z,26.8
2019-03-06T18:17:20.297Z,26.8
2019-03-06T18:20:17.176Z,26.8
2019-03-06T18:23:14.517Z,26.8
2019-03-06T18:29:08.354Z,26.8
2019-03-06T18:32:05.521Z,26.8
2019-03-06T18:37:59.236Z,26.7
2019-03-06T18:40:56.472Z,26.7
2019-03-06T18:43:53.220Z,26.6
2019-03-06T18:46:50.993Z,26.7
2019-03-06T18:49:47.557Z,26.7
2019-03-06T18:52:44.365Z,26.7
2019-03-06T18:55:41.157Z,26.7
2019-03-06T18:58:38.371Z,26.6
2019-03-06T19:01:35.187Z,26.6
2019-03-06T19:07:29.489Z,26.5
2019-03-06T19:10:26.689Z,26.5
2019-03-06T19:13:23.381Z,26.4
2019-03-06T19:16:20.200Z,26.4
2019-03-06T19:22:14.543Z,26.4
2019-03-06T19:25:11.517Z,26.3
2019-03-06T19:28:08.493Z,26.3
2019-03-06T19:31:05.198Z,26.3
2019-03-06T19:34:02.390Z,26.3
2019-03-06T19:39:56.509Z,26.2
2019-03-06T19:42:53.713Z,26.2
2019-03-06T19:45:50.888Z,26.2
2019-03-06T19:48:47.231Z,26.2
2019-03-06T19:51:51.190Z,26.1
2019-03-06T19:57:38.444Z,26.1
2019-03-06T20:00:35.250Z,26.1
2019-03-06T20:03:32.903Z,26.1
2019-03-06T20:06:29.258Z,26.2
2019-03-06T20:09:26.930Z,26.1
2019-03-06T20:15:20.851Z,26.2
2019-03-06T20:18:17.654Z,26.2
2019-03-06T20:21:14.444Z,26.2
2019-03-06T20:24:11.514Z,26.2
2019-03-06T20:27:08.491Z,26.2
2019-03-06T20:30:05.297Z,26.2
2019-03-06T20:35:59.623Z,26.2
2019-03-06T20:38:56.312Z,26.2
2019-03-06T20:44:50.997Z,26.3
2019-03-06T20:47:47.346Z,26.3
2019-03-06T20:50:45.253Z,26.3
2019-03-06T20:53:41.714Z,26.3
2019-03-06T20:56:39.701Z,26.3
2019-03-06T20:59:35.392Z,26.2
2019-03-06T21:02:32.710Z,26.2
2019-03-06T21:05:29.348Z,26.2
2019-03-06T21:08:26.563Z,26.2
2019-03-06T21:11:23.519Z,26.2
2019-03-06T21:14:20.546Z,26.2
2019-03-06T21:17:17.414Z,26.2
2019-03-06T21:20:14.565Z,26.2
2019-03-06T21:23:11.439Z,26.2
2019-03-06T21:26:08.610Z,26.1
2019-03-06T21:29:05.438Z,26.1
2019-03-06T21:32:02.580Z,26
2019-03-06T21:34:59.396Z,26
2019-03-06T21:37:56.664Z,25.9
2019-03-06T21:40:53.591Z,25.9
2019-03-06T21:43:50.597Z,25.9
2019-03-06T21:46:47.458Z,25.8
2019-03-06T21:49:44.616Z,25.8
2019-03-06T21:52:41.442Z,25.8
2019-03-06T21:58:35.664Z,25.7
2019-03-06T22:01:32.438Z,25.7
2019-03-06T22:04:29.595Z,25.6
2019-03-06T22:07:26.598Z,25.6
2019-03-06T22:10:23.749Z,25.6
2019-03-06T22:13:20.710Z,25.6
2019-03-06T22:16:17.634Z,25.5
2019-03-06T22:19:14.726Z,25.5
2019-03-06T22:25:08.688Z,25.5
2019-03-06T22:28:05.515Z,25.4
2019-03-06T22:31:02.721Z,25.4
2019-03-06T22:33:59.520Z,25.4
2019-03-06T22:36:56.671Z,25.4
2019-03-06T22:39:55.421Z,25.4
2019-03-06T22:42:50.815Z,25.4
2019-03-06T22:45:47.533Z,25.4
2019-03-06T22:48:44.670Z,25.3
2019-03-06T22:51:41.662Z,25.4
2019-03-06T22:54:38.818Z,25.3
2019-03-06T22:57:35.704Z,25.3
2019-03-06T23:00:32.718Z,25.2
2019-03-06T23:03:29.662Z,25.2
2019-03-06T23:06:26.850Z,25.2
2019-03-06T23:09:23.703Z,25.2
2019-03-06T23:12:20.867Z,25.2
2019-03-06T23:15:17.852Z,25.2
2019-03-06T23:18:14.859Z,25.2
2019-03-06T23:21:11.823Z,25.2
2019-03-06T23:24:09.045Z,25.2
2019-03-06T23:27:06.121Z,25.2
2019-03-06T23:30:04.205Z,25.2
2019-03-06T23:33:00.434Z,25.1
2019-03-06T23:35:56.963Z,25.1
2019-03-06T23:38:53.597Z,25.1
2019-03-06T23:41:50.963Z,25.1
2019-03-06T23:47:48.250Z,25.1
2019-03-06T23:50:41.809Z,25
2019-03-06T23:56:35.935Z,25.2
2019-03-06T23:59:32.628Z,25.1
